sensor_id;sensor_type;location;lat;lon;timestamp;P1;durP1;ratioP1;P2;durP2;ratioP2
29568;SDS011;16501;51.462;14.346;2023-03-11T00:01:22;0.32;;;0.20;;
29568;SDS011;16501;51.462;14.346;2023-03-11T00:03:47;0.27;;;0.27;;
29568;SDS011;16501;51.462;14.346;2023-03-11T00:06:13;1.45;;;0.25;;
29568;SDS011;16501;51.462;14.346;2023-03-11T00:08:38;0.20;;;0.20;;
29568;SDS011;16501;51.462;14.346;2023-03-11T00:11:03;0.10;;;0.10;;
29568;SDS011;16501;51.462;14.346;2023-03-11T00:13:29;0.88;;;0.30;;
29568;SDS011;16501;51.462;14.346;2023-03-11T00:15:54;0.63;;;0.17;;
29568;SDS011;16501;51.462;14.346;2023-03-11T00:18:20;1.27;;;0.20;;
29568;SDS011;16501;51.462;14.346;2023-03-11T00:20:49;2.08;;;0.30;;
29568;SDS011;16501;51.462;14.346;2023-03-11T00:23:15;0.20;;;0.20;;
29568;SDS011;16501;51.462;14.346;2023-03-11T00:25:41;0.63;;;0.20;;
29568;SDS011;16501;51.462;14.346;2023-03-11T00:28:06;0.30;;;0.30;;
29568;SDS011;16501;51.462;14.346;2023-03-11T00:30:32;0.80;;;0.30;;
29568;SDS011;16501;51.462;14.346;2023-03-11T00:32:57;0.30;;;0.30;;
29568;SDS011;16501;51.462;14.346;2023-03-11T00:35:23;0.30;;;0.30;;
29568;SDS011;16501;51.462;14.346;2023-03-11T00:37:51;0.40;;;0.40;;
29568;SDS011;16501;51.462;14.346;2023-03-11T00:40:17;0.40;;;0.40;;
29568;SDS011;16501;51.462;14.346;2023-03-11T00:42:43;0.38;;;0.38;;
29568;SDS011;16501;51.462;14.346;2023-03-11T00:45:08;0.30;;;0.30;;
29568;SDS011;16501;51.462;14.346;2023-03-11T00:47:33;0.40;;;0.40;;
29568;SDS011;16501;51.462;14.346;2023-03-11T00:49:58;0.30;;;0.30;;
29568;SDS011;16501;51.462;14.346;2023-03-11T00:52:24;0.50;;;0.40;;
29568;SDS011;16501;51.462;14.346;2023-03-11T00:54:49;0.55;;;0.40;;
29568;SDS011;16501;51.462;14.346;2023-03-11T00:57:14;0.40;;;0.40;;
29568;SDS011;16501;51.462;14.346;2023-03-11T00:59:39;0.55;;;0.55;;
29568;SDS011;16501;51.462;14.346;2023-03-11T01:02:04;0.30;;;0.30;;
29568;SDS011;16501;51.462;14.346;2023-03-11T01:04:29;0.60;;;0.60;;
29568;SDS011;16501;51.462;14.346;2023-03-11T01:06:55;0.40;;;0.40;;
29568;SDS011;16501;51.462;14.346;2023-03-11T01:09:20;0.40;;;0.30;;
29568;SDS011;16501;51.462;14.346;2023-03-11T01:11:45;0.50;;;0.40;;
29568;SDS011;16501;51.462;14.346;2023-03-11T01:14:10;0.50;;;0.50;;
29568;SDS011;16501;51.462;14.346;2023-03-11T01:16:35;0.67;;;0.50;;
29568;SDS011;16501;51.462;14.346;2023-03-11T01:19:00;2.40;;;0.43;;
29568;SDS011;16501;51.462;14.346;2023-03-11T01:21:26;1.98;;;0.60;;
29568;SDS011;16501;51.462;14.346;2023-03-11T01:23:51;2.92;;;0.60;;
29568;SDS011;16501;51.462;14.346;2023-03-11T01:26:16;0.75;;;0.50;;
29568;SDS011;16501;51.462;14.346;2023-03-11T01:28:41;1.52;;;0.60;;
29568;SDS011;16501;51.462;14.346;2023-03-11T01:31:07;0.63;;;0.40;;
29568;SDS011;16501;51.462;14.346;2023-03-11T01:33:33;1.08;;;0.30;;
29568;SDS011;16501;51.462;14.346;2023-03-11T01:35:58;1.95;;;0.57;;
29568;SDS011;16501;51.462;14.346;2023-03-11T01:38:23;0.77;;;0.63;;
29568;SDS011;16501;51.462;14.346;2023-03-11T01:40:49;0.93;;;0.63;;
29568;SDS011;16501;51.462;14.346;2023-03-11T01:48:26;1.90;;;0.60;;
29568;SDS011;16501;51.462;14.346;2023-03-11T01:50:51;0.40;;;0.32;;
29568;SDS011;16501;51.462;14.346;2023-03-11T01:53:16;1.13;;;0.30;;
29568;SDS011;16501;51.462;14.346;2023-03-11T01:55:42;0.45;;;0.20;;
29568;SDS011;16501;51.462;14.346;2023-03-11T01:58:08;0.13;;;0.13;;
29568;SDS011;16501;51.462;14.346;2023-03-11T02:00:34;0.20;;;0.20;;
29568;SDS011;16501;51.462;14.346;2023-03-11T02:03:01;0.20;;;0.20;;
29568;SDS011;16501;51.462;14.346;2023-03-11T02:05:30;0.77;;;0.40;;
29568;SDS011;16501;51.462;14.346;2023-03-11T02:07:55;0.28;;;0.22;;
29568;SDS011;16501;51.462;14.346;2023-03-11T02:10:21;1.02;;;0.38;;
29568;SDS011;16501;51.462;14.346;2023-03-11T02:12:47;1.17;;;0.43;;
29568;SDS011;16501;51.462;14.346;2023-03-11T02:15:12;0.35;;;0.35;;
29568;SDS011;16501;51.462;14.346;2023-03-11T02:17:39;0.47;;;0.40;;
29568;SDS011;16501;51.462;14.346;2023-03-11T02:22:36;0.50;;;0.40;;
29568;SDS011;16501;51.462;14.346;2023-03-11T02:27:33;1.08;;;0.47;;
29568;SDS011;16501;51.462;14.346;2023-03-11T02:30:00;0.50;;;0.50;;
29568;SDS011;16501;51.462;14.346;2023-03-11T02:32:25;0.30;;;0.30;;
29568;SDS011;16501;51.462;14.346;2023-03-11T02:34:51;0.68;;;0.60;;
29568;SDS011;16501;51.462;14.346;2023-03-11T02:37:16;0.82;;;0.50;;
29568;SDS011;16501;51.462;14.346;2023-03-11T02:39:43;0.45;;;0.45;;
29568;SDS011;16501;51.462;14.346;2023-03-11T02:44:36;0.52;;;0.52;;
29568;SDS011;16501;51.462;14.346;2023-03-11T02:47:02;0.88;;;0.60;;
29568;SDS011;16501;51.462;14.346;2023-03-11T02:49:27;0.82;;;0.60;;
29568;SDS011;16501;51.462;14.346;2023-03-11T02:51:53;0.60;;;0.60;;
29568;SDS011;16501;51.462;14.346;2023-03-11T02:54:18;1.92;;;0.52;;
29568;SDS011;16501;51.462;14.346;2023-03-11T02:56:43;0.70;;;0.50;;
29568;SDS011;16501;51.462;14.346;2023-03-11T02:59:09;0.50;;;0.50;;
29568;SDS011;16501;51.462;14.346;2023-03-11T03:01:34;0.60;;;0.50;;
29568;SDS011;16501;51.462;14.346;2023-03-11T03:03:59;0.70;;;0.60;;
29568;SDS011;16501;51.462;14.346;2023-03-11T03:06:24;0.55;;;0.45;;
29568;SDS011;16501;51.462;14.346;2023-03-11T03:08:50;0.70;;;0.70;;
29568;SDS011;16501;51.462;14.346;2023-03-11T03:11:15;0.77;;;0.50;;
29568;SDS011;16501;51.462;14.346;2023-03-11T03:13:40;0.70;;;0.70;;
29568;SDS011;16501;51.462;14.346;2023-03-11T03:16:05;0.65;;;0.50;;
29568;SDS011;16501;51.462;14.346;2023-03-11T03:18:31;3.03;;;0.60;;
29568;SDS011;16501;51.462;14.346;2023-03-11T03:20:56;0.32;;;0.32;;
29568;SDS011;16501;51.462;14.346;2023-03-11T03:23:21;0.35;;;0.35;;
29568;SDS011;16501;51.462;14.346;2023-03-11T03:25:46;0.40;;;0.40;;
29568;SDS011;16501;51.462;14.346;2023-03-11T03:28:12;0.90;;;0.57;;
29568;SDS011;16501;51.462;14.346;2023-03-11T03:30:37;0.47;;;0.47;;
29568;SDS011;16501;51.462;14.346;2023-03-11T03:33:02;0.30;;;0.30;;
29568;SDS011;16501;51.462;14.346;2023-03-11T03:35:28;0.28;;;0.28;;
29568;SDS011;16501;51.462;14.346;2023-03-11T03:37:53;0.20;;;0.20;;
29568;SDS011;16501;51.462;14.346;2023-03-11T03:40:19;0.20;;;0.20;;
29568;SDS011;16501;51.462;14.346;2023-03-11T03:42:44;0.20;;;0.20;;
29568;SDS011;16501;51.462;14.346;2023-03-11T03:45:09;0.20;;;0.20;;
29568;SDS011;16501;51.462;14.346;2023-03-11T03:47:35;0.98;;;0.30;;
29568;SDS011;16501;51.462;14.346;2023-03-11T03:50:01;0.17;;;0.17;;
29568;SDS011;16501;51.462;14.346;2023-03-11T03:52:26;0.10;;;0.10;;
29568;SDS011;16501;51.462;14.346;2023-03-11T03:54:51;0.20;;;0.10;;
29568;SDS011;16501;51.462;14.346;2023-03-11T03:57:16;0.00;;;0.00;;
29568;SDS011;16501;51.462;14.346;2023-03-11T03:59:41;0.13;;;0.05;;
29568;SDS011;16501;51.462;14.346;2023-03-11T04:02:06;0.10;;;0.10;;
29568;SDS011;16501;51.462;14.346;2023-03-11T04:04:31;0.13;;;0.13;;
29568;SDS011;16501;51.462;14.346;2023-03-11T04:06:57;0.38;;;0.13;;
29568;SDS011;16501;51.462;14.346;2023-03-11T04:09:22;0.10;;;0.10;;
29568;SDS011;16501;51.462;14.346;2023-03-11T04:11:47;0.08;;;0.08;;
29568;SDS011;16501;51.462;14.346;2023-03-11T04:14:12;0.30;;;0.10;;
29568;SDS011;16501;51.462;14.346;2023-03-11T04:16:38;1.35;;;0.32;;
29568;SDS011;16501;51.462;14.346;2023-03-11T04:19:03;0.10;;;0.10;;
29568;SDS011;16501;51.462;14.346;2023-03-11T04:21:30;0.10;;;0.10;;
29568;SDS011;16501;51.462;14.346;2023-03-11T04:23:55;0.30;;;0.30;;
29568;SDS011;16501;51.462;14.346;2023-03-11T04:26:20;0.73;;;0.30;;
29568;SDS011;16501;51.462;14.346;2023-03-11T04:28:45;0.35;;;0.30;;
29568;SDS011;16501;51.462;14.346;2023-03-11T04:31:10;0.30;;;0.30;;
29568;SDS011;16501;51.462;14.346;2023-03-11T04:33:36;0.63;;;0.50;;
29568;SDS011;16501;51.462;14.346;2023-03-11T04:36:05;0.32;;;0.32;;
29568;SDS011;16501;51.462;14.346;2023-03-11T04:38:30;0.43;;;0.30;;
29568;SDS011;16501;51.462;14.346;2023-03-11T04:40:59;0.35;;;0.35;;
29568;SDS011;16501;51.462;14.346;2023-03-11T04:43:24;0.73;;;0.50;;
29568;SDS011;16501;51.462;14.346;2023-03-11T04:45:49;0.35;;;0.30;;
29568;SDS011;16501;51.462;14.346;2023-03-11T04:48:15;0.40;;;0.40;;
29568;SDS011;16501;51.462;14.346;2023-03-11T04:50:40;0.30;;;0.30;;
29568;SDS011;16501;51.462;14.346;2023-03-11T04:53:06;0.63;;;0.47;;
29568;SDS011;16501;51.462;14.346;2023-03-11T04:55:31;0.40;;;0.40;;
29568;SDS011;16501;51.462;14.346;2023-03-11T04:57:57;0.40;;;0.40;;
29568;SDS011;16501;51.462;14.346;2023-03-11T05:00:22;0.38;;;0.38;;
29568;SDS011;16501;51.462;14.346;2023-03-11T05:02:48;0.47;;;0.47;;
29568;SDS011;16501;51.462;14.346;2023-03-11T05:05:14;0.63;;;0.52;;
29568;SDS011;16501;51.462;14.346;2023-03-11T05:07:39;0.50;;;0.50;;
29568;SDS011;16501;51.462;14.346;2023-03-11T05:10:04;3.60;;;0.63;;
29568;SDS011;16501;51.462;14.346;2023-03-11T05:12:31;0.80;;;0.60;;
29568;SDS011;16501;51.462;14.346;2023-03-11T05:14:56;0.50;;;0.50;;
29568;SDS011;16501;51.462;14.346;2023-03-11T05:17:21;0.80;;;0.70;;
29568;SDS011;16501;51.462;14.346;2023-03-11T05:19:46;0.80;;;0.60;;
29568;SDS011;16501;51.462;14.346;2023-03-11T05:22:12;1.02;;;0.57;;
29568;SDS011;16501;51.462;14.346;2023-03-11T05:24:37;2.08;;;0.70;;
29568;SDS011;16501;51.462;14.346;2023-03-11T05:27:03;0.93;;;0.75;;
29568;SDS011;16501;51.462;14.346;2023-03-11T05:29:28;1.08;;;0.95;;
29568;SDS011;16501;51.462;14.346;2023-03-11T05:31:53;2.30;;;0.95;;
29568;SDS011;16501;51.462;14.346;2023-03-11T05:34:18;1.13;;;0.82;;
29568;SDS011;16501;51.462;14.346;2023-03-11T05:36:44;1.88;;;1.05;;
29568;SDS011;16501;51.462;14.346;2023-03-11T05:39:09;0.90;;;0.70;;
29568;SDS011;16501;51.462;14.346;2023-03-11T05:41:34;1.10;;;0.93;;
29568;SDS011;16501;51.462;14.346;2023-03-11T05:43:59;1.63;;;1.00;;
29568;SDS011;16501;51.462;14.346;2023-03-11T05:46:25;1.50;;;1.03;;
29568;SDS011;16501;51.462;14.346;2023-03-11T05:48:50;2.10;;;1.00;;
29568;SDS011;16501;51.462;14.346;2023-03-11T05:51:15;2.55;;;1.02;;
29568;SDS011;16501;51.462;14.346;2023-03-11T05:53:46;1.08;;;0.80;;
29568;SDS011;16501;51.462;14.346;2023-03-11T05:58:37;1.13;;;1.00;;
29568;SDS011;16501;51.462;14.346;2023-03-11T06:01:06;0.90;;;0.90;;
29568;SDS011;16501;51.462;14.346;2023-03-11T06:03:31;1.50;;;1.08;;
29568;SDS011;16501;51.462;14.346;2023-03-11T06:05:56;1.37;;;1.13;;
29568;SDS011;16501;51.462;14.346;2023-03-11T06:08:21;1.45;;;0.80;;
29568;SDS011;16501;51.462;14.346;2023-03-11T06:10:47;1.42;;;1.02;;
29568;SDS011;16501;51.462;14.346;2023-03-11T06:13:12;2.55;;;1.20;;
29568;SDS011;16501;51.462;14.346;2023-03-11T06:15:37;1.52;;;1.20;;
29568;SDS011;16501;51.462;14.346;2023-03-11T06:18:03;1.73;;;1.05;;
29568;SDS011;16501;51.462;14.346;2023-03-11T06:20:28;0.85;;;0.85;;
29568;SDS011;16501;51.462;14.346;2023-03-11T06:22:53;0.80;;;0.80;;
29568;SDS011;16501;51.462;14.346;2023-03-11T06:25:18;1.23;;;1.10;;
29568;SDS011;16501;51.462;14.346;2023-03-11T06:27:47;1.02;;;0.75;;
29568;SDS011;16501;51.462;14.346;2023-03-11T06:30:14;1.88;;;1.00;;
29568;SDS011;16501;51.462;14.346;2023-03-11T06:32:39;1.27;;;1.00;;
29568;SDS011;16501;51.462;14.346;2023-03-11T06:35:07;1.27;;;1.10;;
29568;SDS011;16501;51.462;14.346;2023-03-11T06:37:34;1.27;;;0.80;;
29568;SDS011;16501;51.462;14.346;2023-03-11T06:39:59;1.25;;;1.00;;
29568;SDS011;16501;51.462;14.346;2023-03-11T06:42:24;1.58;;;0.90;;
29568;SDS011;16501;51.462;14.346;2023-03-11T06:44:50;1.40;;;1.20;;
29568;SDS011;16501;51.462;14.346;2023-03-11T06:47:15;1.30;;;1.20;;
29568;SDS011;16501;51.462;14.346;2023-03-11T06:49:41;1.20;;;1.00;;
29568;SDS011;16501;51.462;14.346;2023-03-11T06:52:07;1.95;;;1.30;;
29568;SDS011;16501;51.462;14.346;2023-03-11T06:54:32;1.65;;;1.00;;
29568;SDS011;16501;51.462;14.346;2023-03-11T06:56:57;2.20;;;1.70;;
29568;SDS011;16501;51.462;14.346;2023-03-11T06:59:22;7.65;;;3.45;;
29568;SDS011;16501;51.462;14.346;2023-03-11T07:01:47;4.72;;;2.45;;
29568;SDS011;16501;51.462;14.346;2023-03-11T07:04:13;1.83;;;1.30;;
29568;SDS011;16501;51.462;14.346;2023-03-11T07:06:38;6.45;;;2.28;;
29568;SDS011;16501;51.462;14.346;2023-03-11T07:09:03;14.15;;;5.57;;
29568;SDS011;16501;51.462;14.346;2023-03-11T07:11:28;6.72;;;3.38;;
29568;SDS011;16501;51.462;14.346;2023-03-11T07:13:54;9.93;;;4.22;;
29568;SDS011;16501;51.462;14.346;2023-03-11T07:16:20;5.10;;;2.22;;
29568;SDS011;16501;51.462;14.346;2023-03-11T07:18:46;10.95;;;4.43;;
29568;SDS011;16501;51.462;14.346;2023-03-11T07:21:15;12.85;;;5.00;;
29568;SDS011;16501;51.462;14.346;2023-03-11T07:23:41;6.30;;;2.95;;
29568;SDS011;16501;51.462;14.346;2023-03-11T07:26:09;7.68;;;3.88;;
29568;SDS011;16501;51.462;14.346;2023-03-11T07:28:35;4.65;;;2.53;;
29568;SDS011;16501;51.462;14.346;2023-03-11T07:31:05;5.57;;;2.50;;
29568;SDS011;16501;51.462;14.346;2023-03-11T07:33:30;4.35;;;3.38;;
29568;SDS011;16501;51.462;14.346;2023-03-11T07:35:56;3.47;;;1.52;;
29568;SDS011;16501;51.462;14.346;2023-03-11T07:38:21;3.85;;;1.70;;
29568;SDS011;16501;51.462;14.346;2023-03-11T07:40:47;4.32;;;2.08;;
29568;SDS011;16501;51.462;14.346;2023-03-11T07:43:21;2.70;;;1.90;;
29568;SDS011;16501;51.462;14.346;2023-03-11T07:45:46;2.40;;;1.98;;
29568;SDS011;16501;51.462;14.346;2023-03-11T07:48:11;2.80;;;2.05;;
29568;SDS011;16501;51.462;14.346;2023-03-11T07:50:36;4.97;;;2.35;;
29568;SDS011;16501;51.462;14.346;2023-03-11T07:53:02;4.18;;;2.03;;
29568;SDS011;16501;51.462;14.346;2023-03-11T07:55:27;3.33;;;2.20;;
29568;SDS011;16501;51.462;14.346;2023-03-11T07:57:52;3.58;;;2.20;;
29568;SDS011;16501;51.462;14.346;2023-03-11T08:00:17;3.85;;;1.73;;
29568;SDS011;16501;51.462;14.346;2023-03-11T08:02:43;4.82;;;2.08;;
29568;SDS011;16501;51.462;14.346;2023-03-11T08:05:08;3.17;;;2.15;;
29568;SDS011;16501;51.462;14.346;2023-03-11T08:07:33;3.38;;;2.00;;
29568;SDS011;16501;51.462;14.346;2023-03-11T08:09:59;4.63;;;2.40;;
29568;SDS011;16501;51.462;14.346;2023-03-11T08:12:24;2.78;;;2.00;;
29568;SDS011;16501;51.462;14.346;2023-03-11T08:14:49;3.92;;;2.35;;
29568;SDS011;16501;51.462;14.346;2023-03-11T08:17:14;3.55;;;2.55;;
29568;SDS011;16501;51.462;14.346;2023-03-11T08:22:41;5.13;;;2.67;;
29568;SDS011;16501;51.462;14.346;2023-03-11T08:25:07;4.68;;;2.72;;
29568;SDS011;16501;51.462;14.346;2023-03-11T08:27:32;4.30;;;3.30;;
29568;SDS011;16501;51.462;14.346;2023-03-11T08:29:57;6.78;;;3.40;;
29568;SDS011;16501;51.462;14.346;2023-03-11T08:32:23;5.57;;;3.83;;
29568;SDS011;16501;51.462;14.346;2023-03-11T08:34:48;4.82;;;2.75;;
29568;SDS011;16501;51.462;14.346;2023-03-11T08:37:13;6.07;;;3.78;;
29568;SDS011;16501;51.462;14.346;2023-03-11T08:39:38;8.90;;;4.07;;
29568;SDS011;16501;51.462;14.346;2023-03-11T08:42:03;5.68;;;3.67;;
29568;SDS011;16501;51.462;14.346;2023-03-11T08:44:29;6.10;;;3.25;;
29568;SDS011;16501;51.462;14.346;2023-03-11T08:46:54;5.43;;;3.50;;
29568;SDS011;16501;51.462;14.346;2023-03-11T08:49:19;4.25;;;3.50;;
29568;SDS011;16501;51.462;14.346;2023-03-11T08:51:44;6.88;;;3.53;;
29568;SDS011;16501;51.462;14.346;2023-03-11T08:54:09;6.30;;;3.85;;
29568;SDS011;16501;51.462;14.346;2023-03-11T08:56:34;5.82;;;3.17;;
29568;SDS011;16501;51.462;14.346;2023-03-11T08:59:00;8.52;;;3.72;;
29568;SDS011;16501;51.462;14.346;2023-03-11T09:01:26;7.03;;;3.47;;
29568;SDS011;16501;51.462;14.346;2023-03-11T09:03:53;6.57;;;3.90;;
29568;SDS011;16501;51.462;14.346;2023-03-11T09:06:18;5.90;;;3.40;;
29568;SDS011;16501;51.462;14.346;2023-03-11T09:08:44;5.88;;;3.33;;
29568;SDS011;16501;51.462;14.346;2023-03-11T09:11:09;6.32;;;3.85;;
29568;SDS011;16501;51.462;14.346;2023-03-11T09:13:37;6.07;;;3.45;;
29568;SDS011;16501;51.462;14.346;2023-03-11T09:16:05;7.65;;;4.45;;
29568;SDS011;16501;51.462;14.346;2023-03-11T09:18:30;5.82;;;4.18;;
29568;SDS011;16501;51.462;14.346;2023-03-11T09:20:55;4.78;;;3.83;;
29568;SDS011;16501;51.462;14.346;2023-03-11T09:23:22;7.18;;;3.53;;
29568;SDS011;16501;51.462;14.346;2023-03-11T09:25:47;7.97;;;4.05;;
29568;SDS011;16501;51.462;14.346;2023-03-11T09:28:13;6.63;;;3.83;;
29568;SDS011;16501;51.462;14.346;2023-03-11T09:30:38;4.50;;;3.78;;
29568;SDS011;16501;51.462;14.346;2023-03-11T09:33:03;6.97;;;4.28;;
29568;SDS011;16501;51.462;14.346;2023-03-11T09:35:28;4.43;;;3.40;;
29568;SDS011;16501;51.462;14.346;2023-03-11T09:37:53;6.05;;;3.75;;
29568;SDS011;16501;51.462;14.346;2023-03-11T09:40:20;6.22;;;3.35;;
29568;SDS011;16501;51.462;14.346;2023-03-11T09:47:52;4.80;;;2.90;;
29568;SDS011;16501;51.462;14.346;2023-03-11T09:50:42;9.05;;;2.85;;
29568;SDS011;16501;51.462;14.346;2023-03-11T09:53:15;11.13;;;3.40;;
29568;SDS011;16501;51.462;14.346;2023-03-11T09:58:09;4.68;;;2.55;;
29568;SDS011;16501;51.462;14.346;2023-03-11T10:00:35;7.22;;;3.50;;
29568;SDS011;16501;51.462;14.346;2023-03-11T10:03:01;5.47;;;3.70;;
29568;SDS011;16501;51.462;14.346;2023-03-11T10:05:27;3.78;;;2.25;;
29568;SDS011;16501;51.462;14.346;2023-03-11T10:07:56;4.72;;;2.88;;
29568;SDS011;16501;51.462;14.346;2023-03-11T10:10:22;6.53;;;3.17;;
29568;SDS011;16501;51.462;14.346;2023-03-11T10:12:51;5.45;;;3.00;;
29568;SDS011;16501;51.462;14.346;2023-03-11T10:15:23;4.63;;;3.10;;
29568;SDS011;16501;51.462;14.346;2023-03-11T10:18:01;6.90;;;3.50;;
29568;SDS011;16501;51.462;14.346;2023-03-11T10:20:44;6.57;;;4.28;;
29568;SDS011;16501;51.462;14.346;2023-03-11T10:26:07;5.20;;;3.60;;
29568;SDS011;16501;51.462;14.346;2023-03-11T10:28:35;4.90;;;3.63;;
29568;SDS011;16501;51.462;14.346;2023-03-11T10:31:07;6.53;;;3.47;;
29568;SDS011;16501;51.462;14.346;2023-03-11T10:33:43;4.53;;;3.08;;
29568;SDS011;16501;51.462;14.346;2023-03-11T10:36:11;5.97;;;3.33;;
29568;SDS011;16501;51.462;14.346;2023-03-11T10:38:41;6.32;;;3.30;;
29568;SDS011;16501;51.462;14.346;2023-03-11T10:41:22;6.47;;;3.20;;
29568;SDS011;16501;51.462;14.346;2023-03-11T10:43:49;4.25;;;2.95;;
29568;SDS011;16501;51.462;14.346;2023-03-11T10:46:20;6.60;;;2.83;;
29568;SDS011;16501;51.462;14.346;2023-03-11T10:48:47;4.88;;;2.42;;
29568;SDS011;16501;51.462;14.346;2023-03-11T10:53:48;5.50;;;3.58;;
29568;SDS011;16501;51.462;14.346;2023-03-11T10:58:48;7.95;;;4.18;;
29568;SDS011;16501;51.462;14.346;2023-03-11T11:01:14;8.20;;;4.83;;
29568;SDS011;16501;51.462;14.346;2023-03-11T11:03:41;5.55;;;3.60;;
29568;SDS011;16501;51.462;14.346;2023-03-11T11:06:09;9.77;;;5.05;;
29568;SDS011;16501;51.462;14.346;2023-03-11T11:08:43;6.32;;;4.20;;
29568;SDS011;16501;51.462;14.346;2023-03-11T11:11:18;6.45;;;4.22;;
29568;SDS011;16501;51.462;14.346;2023-03-11T11:13:44;7.72;;;4.45;;
29568;SDS011;16501;51.462;14.346;2023-03-11T11:16:19;7.40;;;4.35;;
29568;SDS011;16501;51.462;14.346;2023-03-11T11:21:12;6.25;;;3.80;;
29568;SDS011;16501;51.462;14.346;2023-03-11T11:23:48;6.68;;;3.90;;
29568;SDS011;16501;51.462;14.346;2023-03-11T11:26:23;7.35;;;3.90;;
29568;SDS011;16501;51.462;14.346;2023-03-11T11:29:06;8.50;;;5.35;;
29568;SDS011;16501;51.462;14.346;2023-03-11T11:31:38;5.85;;;3.78;;
29568;SDS011;16501;51.462;14.346;2023-03-11T11:34:10;5.13;;;3.47;;
29568;SDS011;16501;51.462;14.346;2023-03-11T11:36:46;9.27;;;5.15;;
29568;SDS011;16501;51.462;14.346;2023-03-11T11:39:15;6.97;;;4.35;;
29568;SDS011;16501;51.462;14.346;2023-03-11T11:41:43;5.68;;;4.05;;
29568;SDS011;16501;51.462;14.346;2023-03-11T11:44:09;6.00;;;3.55;;
29568;SDS011;16501;51.462;14.346;2023-03-11T11:46:40;5.78;;;3.90;;
29568;SDS011;16501;51.462;14.346;2023-03-11T11:49:18;7.53;;;4.57;;
29568;SDS011;16501;51.462;14.346;2023-03-11T11:54:24;6.67;;;3.70;;
29568;SDS011;16501;51.462;14.346;2023-03-11T11:56:53;5.32;;;3.72;;
29568;SDS011;16501;51.462;14.346;2023-03-11T11:59:19;8.70;;;4.13;;
29568;SDS011;16501;51.462;14.346;2023-03-11T12:01:48;4.93;;;3.40;;
29568;SDS011;16501;51.462;14.346;2023-03-11T12:04:20;4.50;;;3.35;;
29568;SDS011;16501;51.462;14.346;2023-03-11T12:06:52;4.43;;;3.30;;
29568;SDS011;16501;51.462;14.346;2023-03-11T12:09:27;7.05;;;4.35;;
29568;SDS011;16501;51.462;14.346;2023-03-11T12:12:03;6.57;;;4.07;;
29568;SDS011;16501;51.462;14.346;2023-03-11T12:14:42;5.35;;;3.70;;
29568;SDS011;16501;51.462;14.346;2023-03-11T12:17:10;6.68;;;4.05;;
29568;SDS011;16501;51.462;14.346;2023-03-11T12:19:47;8.80;;;4.97;;
29568;SDS011;16501;51.462;14.346;2023-03-11T12:25:04;10.32;;;4.43;;
29568;SDS011;16501;51.462;14.346;2023-03-11T12:27:33;8.68;;;5.13;;
29568;SDS011;16501;51.462;14.346;2023-03-11T12:30:02;7.70;;;4.57;;
29568;SDS011;16501;51.462;14.346;2023-03-11T12:32:33;6.30;;;4.13;;
29568;SDS011;16501;51.462;14.346;2023-03-11T12:35:01;6.60;;;4.13;;
29568;SDS011;16501;51.462;14.346;2023-03-11T12:37:28;6.95;;;3.50;;
29568;SDS011;16501;51.462;14.346;2023-03-11T12:39:54;5.32;;;3.63;;
29568;SDS011;16501;51.462;14.346;2023-03-11T12:42:20;3.72;;;2.72;;
29568;SDS011;16501;51.462;14.346;2023-03-11T12:44:45;5.78;;;3.35;;
29568;SDS011;16501;51.462;14.346;2023-03-11T12:47:18;5.63;;;3.70;;
29568;SDS011;16501;51.462;14.346;2023-03-11T12:49:44;3.35;;;2.72;;
29568;SDS011;16501;51.462;14.346;2023-03-11T13:12:43;7.47;;;4.88;;
29568;SDS011;16501;51.462;14.346;2023-03-11T13:25:42;5.15;;;3.33;;
29568;SDS011;16501;51.462;14.346;2023-03-11T13:33:44;4.97;;;3.25;;
29568;SDS011;16501;51.462;14.346;2023-03-11T13:36:20;3.22;;;2.65;;
29568;SDS011;16501;51.462;14.346;2023-03-11T13:39:01;4.47;;;3.35;;
29568;SDS011;16501;51.462;14.346;2023-03-11T13:41:31;6.55;;;3.25;;
29568;SDS011;16501;51.462;14.346;2023-03-11T13:43:59;8.75;;;3.30;;
29568;SDS011;16501;51.462;14.346;2023-03-11T13:46:30;8.35;;;3.33;;
29568;SDS011;16501;51.462;14.346;2023-03-11T13:49:22;20.02;;;3.88;;
29568;SDS011;16501;51.462;14.346;2023-03-11T13:51:49;5.05;;;2.75;;
29568;SDS011;16501;51.462;14.346;2023-03-11T13:56:49;12.60;;;6.65;;
29568;SDS011;16501;51.462;14.346;2023-03-11T13:59:22;5.32;;;3.45;;
29568;SDS011;16501;51.462;14.346;2023-03-11T14:01:58;4.53;;;2.50;;
29568;SDS011;16501;51.462;14.346;2023-03-11T14:04:24;2.65;;;2.10;;
29568;SDS011;16501;51.462;14.346;2023-03-11T14:06:50;3.13;;;2.45;;
29568;SDS011;16501;51.462;14.346;2023-03-11T14:09:20;4.45;;;3.08;;
29568;SDS011;16501;51.462;14.346;2023-03-11T14:11:45;3.42;;;2.80;;
29568;SDS011;16501;51.462;14.346;2023-03-11T14:14:26;3.67;;;2.70;;
29568;SDS011;16501;51.462;14.346;2023-03-11T14:16:54;4.03;;;2.90;;
29568;SDS011;16501;51.462;14.346;2023-03-11T14:19:20;4.70;;;3.35;;
29568;SDS011;16501;51.462;14.346;2023-03-11T14:21:46;5.43;;;3.60;;
29568;SDS011;16501;51.462;14.346;2023-03-11T14:24:21;5.07;;;3.17;;
29568;SDS011;16501;51.462;14.346;2023-03-11T14:26:47;4.97;;;3.42;;
29568;SDS011;16501;51.462;14.346;2023-03-11T14:29:17;7.95;;;4.25;;
29568;SDS011;16501;51.462;14.346;2023-03-11T14:31:43;5.63;;;3.67;;
29568;SDS011;16501;51.462;14.346;2023-03-11T14:37:14;6.90;;;4.18;;
29568;SDS011;16501;51.462;14.346;2023-03-11T14:44:31;6.95;;;4.32;;
29568;SDS011;16501;51.462;14.346;2023-03-11T14:47:08;8.13;;;4.30;;
29568;SDS011;16501;51.462;14.346;2023-03-11T14:49:34;6.35;;;3.90;;
29568;SDS011;16501;51.462;14.346;2023-03-11T14:52:01;5.68;;;3.97;;
29568;SDS011;16501;51.462;14.346;2023-03-11T14:54:28;5.15;;;3.92;;
29568;SDS011;16501;51.462;14.346;2023-03-11T14:57:36;8.38;;;4.32;;
29568;SDS011;16501;51.462;14.346;2023-03-11T14:59:42;6.82;;;4.03;;
29568;SDS011;16501;51.462;14.346;2023-03-11T15:02:29;9.90;;;4.13;;
29568;SDS011;16501;51.462;14.346;2023-03-11T15:04:55;8.18;;;4.07;;
29568;SDS011;16501;51.462;14.346;2023-03-11T15:07:20;6.45;;;4.00;;
29568;SDS011;16501;51.462;14.346;2023-03-11T15:09:46;6.85;;;3.95;;
29568;SDS011;16501;51.462;14.346;2023-03-11T15:15:26;7.82;;;4.43;;
29568;SDS011;16501;51.462;14.346;2023-03-11T15:22:52;6.68;;;3.85;;
29568;SDS011;16501;51.462;14.346;2023-03-11T15:25:21;8.27;;;4.38;;
29568;SDS011;16501;51.462;14.346;2023-03-11T15:27:46;5.85;;;3.95;;
29568;SDS011;16501;51.462;14.346;2023-03-11T15:30:22;6.35;;;3.78;;
29568;SDS011;16501;51.462;14.346;2023-03-11T15:32:48;5.05;;;3.63;;
29568;SDS011;16501;51.462;14.346;2023-03-11T15:37:42;4.82;;;3.75;;
29568;SDS011;16501;51.462;14.346;2023-03-11T15:40:12;6.20;;;3.67;;
29568;SDS011;16501;51.462;14.346;2023-03-11T15:42:41;5.38;;;3.47;;
29568;SDS011;16501;51.462;14.346;2023-03-11T15:45:10;6.35;;;3.50;;
29568;SDS011;16501;51.462;14.346;2023-03-11T15:47:37;9.75;;;4.72;;
29568;SDS011;16501;51.462;14.346;2023-03-11T15:52:36;6.57;;;4.18;;
29568;SDS011;16501;51.462;14.346;2023-03-11T15:55:01;4.65;;;3.20;;
29568;SDS011;16501;51.462;14.346;2023-03-11T15:57:27;7.28;;;3.95;;
29568;SDS011;16501;51.462;14.346;2023-03-11T15:59:53;6.78;;;3.63;;
29568;SDS011;16501;51.462;14.346;2023-03-11T16:02:22;6.72;;;3.25;;
29568;SDS011;16501;51.462;14.346;2023-03-11T16:04:48;5.18;;;3.25;;
29568;SDS011;16501;51.462;14.346;2023-03-11T16:07:14;6.30;;;3.95;;
29568;SDS011;16501;51.462;14.346;2023-03-11T16:09:39;7.50;;;3.83;;
29568;SDS011;16501;51.462;14.346;2023-03-11T16:12:08;7.00;;;3.83;;
29568;SDS011;16501;51.462;14.346;2023-03-11T16:14:37;5.13;;;3.08;;